sensor_id;sensor_type;location;lat;lon;timestamp;temperature;humidity
16076;DHT22;8142;48.242;11.644;2023-04-29T00:01:26;11.30;99.90
16076;DHT22;8142;48.242;11.644;2023-04-29T00:03:52;11.30;99.90
16076;DHT22;8142;48.242;11.644;2023-04-29T00:06:19;11.20;99.90
16076;DHT22;8142;48.242;11.644;2023-04-29T00:08:45;11.30;99.90
16076;DHT22;8142;48.242;11.644;2023-04-29T00:11:11;11.30;99.90
16076;DHT22;8142;48.242;11.644;2023-04-29T00:13:37;11.30;99.90
16076;DHT22;8142;48.242;11.644;2023-04-29T00:16:07;11.20;99.90
16076;DHT22;8142;48.242;11.644;2023-04-29T00:18:35;11.20;99.90
16076;DHT22;8142;48.242;11.644;2023-04-29T00:21:02;11.20;99.90
16076;DHT22;8142;48.242;11.644;2023-04-29T00:23:34;11.20;99.90
16076;DHT22;8142;48.242;11.644;2023-04-29T00:26:00;11.20;99.90
16076;DHT22;8142;48.242;11.644;2023-04-29T00:28:26;11.20;99.90
16076;DHT22;8142;48.242;11.644;2023-04-29T00:30:52;11.10;99.90
16076;DHT22;8142;48.242;11.644;2023-04-29T00:33:19;11.10;99.90
16076;DHT22;8142;48.242;11.644;2023-04-29T00:35:46;11.10;99.90
16076;DHT22;8142;48.242;11.644;2023-04-29T00:38:12;11.10;99.90
16076;DHT22;8142;48.242;11.644;2023-04-29T00:40:38;11.10;99.90
16076;DHT22;8142;48.242;11.644;2023-04-29T00:43:04;11.10;99.90
16076;DHT22;8142;48.242;11.644;2023-04-29T00:45:30;11.10;99.90
16076;DHT22;8142;48.242;11.644;2023-04-29T00:47:56;11.10;99.90
16076;DHT22;8142;48.242;11.644;2023-04-29T00:50:22;11.10;99.90
16076;DHT22;8142;48.242;11.644;2023-04-29T00:52:48;11.10;99.90
16076;DHT22;8142;48.242;11.644;2023-04-29T00:55:16;11.10;99.90
16076;DHT22;8142;48.242;11.644;2023-04-29T00:57:44;11.10;99.90
16076;DHT22;8142;48.242;11.644;2023-04-29T01:00:13;11.10;99.90
16076;DHT22;8142;48.242;11.644;2023-04-29T01:02:41;11.10;99.90
16076;DHT22;8142;48.242;11.644;2023-04-29T01:05:08;11.10;99.90
16076;DHT22;8142;48.242;11.644;2023-04-29T01:07:55;11.10;99.90
16076;DHT22;8142;48.242;11.644;2023-04-29T01:10:28;11.10;99.90
16076;DHT22;8142;48.242;11.644;2023-04-29T01:13:30;11.10;99.90
16076;DHT22;8142;48.242;11.644;2023-04-29T01:16:03;11.10;99.90
16076;DHT22;8142;48.242;11.644;2023-04-29T01:18:56;11.10;99.90
16076;DHT22;8142;48.242;11.644;2023-04-29T01:21:24;11.10;99.90
16076;DHT22;8142;48.242;11.644;2023-04-29T01:23:50;11.10;99.90
16076;DHT22;8142;48.242;11.644;2023-04-29T01:26:21;11.10;99.90
16076;DHT22;8142;48.242;11.644;2023-04-29T01:31:37;11.20;99.90
16076;DHT22;8142;48.242;11.644;2023-04-29T01:34:22;11.20;99.90
16076;DHT22;8142;48.242;11.644;2023-04-29T01:37:17;11.20;99.90
16076;DHT22;8142;48.242;11.644;2023-04-29T01:39:59;11.20;99.90
16076;DHT22;8142;48.242;11.644;2023-04-29T01:42:43;11.20;99.90
16076;DHT22;8142;48.242;11.644;2023-04-29T01:45:14;11.20;99.90
16076;DHT22;8142;48.242;11.644;2023-04-29T01:47:42;11.20;99.90
16076;DHT22;8142;48.242;11.644;2023-04-29T01:50:08;11.20;99.90
16076;DHT22;8142;48.242;11.644;2023-04-29T01:52:34;11.20;99.90
16076;DHT22;8142;48.242;11.644;2023-04-29T01:55:01;11.20;99.90
16076;DHT22;8142;48.242;11.644;2023-04-29T01:57:28;11.20;99.90
16076;DHT22;8142;48.242;11.644;2023-04-29T01:59:55;11.20;99.90
16076;DHT22;8142;48.242;11.644;2023-04-29T02:02:22;11.20;99.90
16076;DHT22;8142;48.242;11.644;2023-04-29T02:04:50;11.20;99.90
16076;DHT22;8142;48.242;11.644;2023-04-29T02:07:16;11.20;99.90
16076;DHT22;8142;48.242;11.644;2023-04-29T02:09:42;11.20;99.90
16076;DHT22;8142;48.242;11.644;2023-04-29T02:12:08;11.20;99.90
16076;DHT22;8142;48.242;11.644;2023-04-29T02:14:34;11.30;99.90
16076;DHT22;8142;48.242;11.644;2023-04-29T02:17:00;11.20;99.90
16076;DHT22;8142;48.242;11.644;2023-04-29T02:19:27;11.20;99.90
16076;DHT22;8142;48.242;11.644;2023-04-29T02:21:53;11.20;99.90
16076;DHT22;8142;48.242;11.644;2023-04-29T02:24:19;11.20;99.90
16076;DHT22;8142;48.242;11.644;2023-04-29T02:26:46;11.30;99.90
16076;DHT22;8142;48.242;11.644;2023-04-29T02:29:12;11.20;99.90
16076;DHT22;8142;48.242;11.644;2023-04-29T02:31:38;11.20;99.90
16076;DHT22;8142;48.242;11.644;2023-04-29T02:34:04;11.20;99.90
16076;DHT22;8142;48.242;11.644;2023-04-29T02:36:30;11.20;99.90
16076;DHT22;8142;48.242;11.644;2023-04-29T02:38:56;11.20;99.90
16076;DHT22;8142;48.242;11.644;2023-04-29T02:41:22;11.20;99.90
16076;DHT22;8142;48.242;11.644;2023-04-29T02:43:50;11.20;99.90
16076;DHT22;8142;48.242;11.644;2023-04-29T02:46:16;11.20;99.90
16076;DHT22;8142;48.242;11.644;2023-04-29T02:48:43;11.20;99.90
16076;DHT22;8142;48.242;11.644;2023-04-29T02:51:10;11.20;99.90
16076;DHT22;8142;48.242;11.644;2023-04-29T02:53:36;11.20;99.90
16076;DHT22;8142;48.242;11.644;2023-04-29T02:56:03;11.20;99.90
16076;DHT22;8142;48.242;11.644;2023-04-29T02:58:29;11.20;99.90
16076;DHT22;8142;48.242;11.644;2023-04-29T03:00:55;11.20;99.90
16076;DHT22;8142;48.242;11.644;2023-04-29T03:03:22;11.20;99.90
16076;DHT22;8142;48.242;11.644;2023-04-29T03:05:48;11.20;99.90
16076;DHT22;8142;48.242;11.644;2023-04-29T03:08:15;11.20;99.90
16076;DHT22;8142;48.242;11.644;2023-04-29T03:10:41;11.20;99.90
16076;DHT22;8142;48.242;11.644;2023-04-29T03:13:07;11.30;99.90
16076;DHT22;8142;48.242;11.644;2023-04-29T03:15:33;11.30;99.90
16076;DHT22;8142;48.242;11.644;2023-04-29T03:17:59;11.30;99.90
16076;DHT22;8142;48.242;11.644;2023-04-29T03:20:28;11.30;99.90
16076;DHT22;8142;48.242;11.644;2023-04-29T03:22:55;11.20;99.90
16076;DHT22;8142;48.242;11.644;2023-04-29T03:25:22;11.30;99.90
16076;DHT22;8142;48.242;11.644;2023-04-29T03:27:48;11.30;99.90
16076;DHT22;8142;48.242;11.644;2023-04-29T03:30:15;11.20;99.90
16076;DHT22;8142;48.242;11.644;2023-04-29T03:32:41;11.20;99.90
16076;DHT22;8142;48.242;11.644;2023-04-29T03:35:07;11.30;99.90
16076;DHT22;8142;48.242;11.644;2023-04-29T03:37:34;11.30;99.90
16076;DHT22;8142;48.242;11.644;2023-04-29T03:40:00;11.30;99.90
16076;DHT22;8142;48.242;11.644;2023-04-29T03:42:26;11.30;99.90
16076;DHT22;8142;48.242;11.644;2023-04-29T03:44:52;11.30;99.90
16076;DHT22;8142;48.242;11.644;2023-04-29T03:47:18;11.30;99.90
16076;DHT22;8142;48.242;11.644;2023-04-29T03:49:44;11.30;99.90
16076;DHT22;8142;48.242;11.644;2023-04-29T03:52:12;11.30;99.90
16076;DHT22;8142;48.242;11.644;2023-04-29T03:54:38;11.30;99.90
16076;DHT22;8142;48.242;11.644;2023-04-29T03:57:04;11.40;99.90
16076;DHT22;8142;48.242;11.644;2023-04-29T03:59:31;11.30;99.90
16076;DHT22;8142;48.242;11.644;2023-04-29T04:01:57;11.30;99.90
16076;DHT22;8142;48.242;11.644;2023-04-29T04:04:23;11.30;99.90
16076;DHT22;8142;48.242;11.644;2023-04-29T04:06:49;11.20;99.90
16076;DHT22;8142;48.242;11.644;2023-04-29T04:09:19;11.10;99.90
16076;DHT22;8142;48.242;11.644;2023-04-29T04:11:46;11.00;99.90
16076;DHT22;8142;48.242;11.644;2023-04-29T04:14:12;10.90;99.90
16076;DHT22;8142;48.242;11.644;2023-04-29T04:16:38;10.80;99.90
16076;DHT22;8142;48.242;11.644;2023-04-29T04:19:04;10.60;99.90
16076;DHT22;8142;48.242;11.644;2023-04-29T04:21:30;10.50;99.90
16076;DHT22;8142;48.242;11.644;2023-04-29T04:23:57;10.40;99.90
16076;DHT22;8142;48.242;11.644;2023-04-29T04:26:23;10.30;99.90
16076;DHT22;8142;48.242;11.644;2023-04-29T04:28:49;10.20;99.90
16076;DHT22;8142;48.242;11.644;2023-04-29T04:31:15;10.10;99.90
16076;DHT22;8142;48.242;11.644;2023-04-29T04:33:41;10.10;99.90
16076;DHT22;8142;48.242;11.644;2023-04-29T04:36:07;10.00;99.90
16076;DHT22;8142;48.242;11.644;2023-04-29T04:38:34;9.90;99.90
16076;DHT22;8142;48.242;11.644;2023-04-29T04:41:00;9.90;99.90
16076;DHT22;8142;48.242;11.644;2023-04-29T04:43:26;9.90;99.90
16076;DHT22;8142;48.242;11.644;2023-04-29T04:45:52;9.90;99.90
16076;DHT22;8142;48.242;11.644;2023-04-29T04:48:18;9.90;99.90
16076;DHT22;8142;48.242;11.644;2023-04-29T04:50:45;10.00;99.90
16076;DHT22;8142;48.242;11.644;2023-04-29T04:53:11;10.10;99.90
16076;DHT22;8142;48.242;11.644;2023-04-29T04:55:37;10.20;99.90
16076;DHT22;8142;48.242;11.644;2023-04-29T04:58:03;10.30;99.90
16076;DHT22;8142;48.242;11.644;2023-04-29T05:00:29;10.30;99.90
16076;DHT22;8142;48.242;11.644;2023-04-29T05:02:55;10.30;99.90
16076;DHT22;8142;48.242;11.644;2023-04-29T05:05:21;10.30;99.90
16076;DHT22;8142;48.242;11.644;2023-04-29T05:07:47;10.30;99.90
16076;DHT22;8142;48.242;11.644;2023-04-29T05:10:13;10.40;99.90
16076;DHT22;8142;48.242;11.644;2023-04-29T05:12:39;10.50;99.90
16076;DHT22;8142;48.242;11.644;2023-04-29T05:15:05;10.60;99.90
16076;DHT22;8142;48.242;11.644;2023-04-29T05:17:35;10.70;99.90
16076;DHT22;8142;48.242;11.644;2023-04-29T05:20:02;10.90;99.90
16076;DHT22;8142;48.242;11.644;2023-04-29T05:22:28;11.00;99.90
16076;DHT22;8142;48.242;11.644;2023-04-29T05:24:54;11.10;99.90
16076;DHT22;8142;48.242;11.644;2023-04-29T05:27:27;11.20;99.90
16076;DHT22;8142;48.242;11.644;2023-04-29T05:29:54;11.40;99.90
16076;DHT22;8142;48.242;11.644;2023-04-29T05:32:20;11.50;99.90
16076;DHT22;8142;48.242;11.644;2023-04-29T05:34:46;11.60;99.90
16076;DHT22;8142;48.242;11.644;2023-04-29T05:37:12;11.70;99.90
16076;DHT22;8142;48.242;11.644;2023-04-29T05:39:38;11.80;99.90
16076;DHT22;8142;48.242;11.644;2023-04-29T05:42:04;12.10;99.90
16076;DHT22;8142;48.242;11.644;2023-04-29T05:44:30;12.30;99.90
16076;DHT22;8142;48.242;11.644;2023-04-29T05:46:57;12.60;99.90
16076;DHT22;8142;48.242;11.644;2023-04-29T05:49:24;12.90;99.90
16076;DHT22;8142;48.242;11.644;2023-04-29T05:51:50;13.20;99.90
16076;DHT22;8142;48.242;11.644;2023-04-29T05:54:16;13.40;99.90
16076;DHT22;8142;48.242;11.644;2023-04-29T05:56:42;13.50;99.90
16076;DHT22;8142;48.242;11.644;2023-04-29T05:59:08;13.60;99.90
16076;DHT22;8142;48.242;11.644;2023-04-29T06:01:34;13.70;99.90
16076;DHT22;8142;48.242;11.644;2023-04-29T06:04:00;13.70;99.90
16076;DHT22;8142;48.242;11.644;2023-04-29T06:06:26;13.70;99.90
16076;DHT22;8142;48.242;11.644;2023-04-29T06:08:53;13.80;99.90
16076;DHT22;8142;48.242;11.644;2023-04-29T06:11:19;13.80;99.90
16076;DHT22;8142;48.242;11.644;2023-04-29T06:13:45;13.90;99.90
16076;DHT22;8142;48.242;11.644;2023-04-29T06:16:12;13.90;99.90
16076;DHT22;8142;48.242;11.644;2023-04-29T06:18:38;13.80;99.90
16076;DHT22;8142;48.242;11.644;2023-04-29T06:21:04;13.70;99.90
16076;DHT22;8142;48.242;11.644;2023-04-29T06:23:30;13.70;99.90
16076;DHT22;8142;48.242;11.644;2023-04-29T06:25:57;13.60;99.90
16076;DHT22;8142;48.242;11.644;2023-04-29T06:28:23;13.60;99.90
16076;DHT22;8142;48.242;11.644;2023-04-29T06:30:49;13.50;99.90
16076;DHT22;8142;48.242;11.644;2023-04-29T06:33:15;13.40;99.90
16076;DHT22;8142;48.242;11.644;2023-04-29T06:35:41;13.40;99.90
16076;DHT22;8142;48.242;11.644;2023-04-29T06:38:07;13.30;99.90
16076;DHT22;8142;48.242;11.644;2023-04-29T06:40:34;13.40;99.90
16076;DHT22;8142;48.242;11.644;2023-04-29T06:43:00;13.30;99.90
16076;DHT22;8142;48.242;11.644;2023-04-29T06:45:26;13.30;99.90
16076;DHT22;8142;48.242;11.644;2023-04-29T06:47:52;13.30;99.90
16076;DHT22;8142;48.242;11.644;2023-04-29T06:50:19;13.30;99.90
16076;DHT22;8142;48.242;11.644;2023-04-29T06:52:45;13.20;99.90
16076;DHT22;8142;48.242;11.644;2023-04-29T06:55:11;13.30;99.90
16076;DHT22;8142;48.242;11.644;2023-04-29T06:57:37;13.20;99.90
16076;DHT22;8142;48.242;11.644;2023-04-29T07:00:04;13.20;99.90
16076;DHT22;8142;48.242;11.644;2023-04-29T07:02:30;13.20;99.90
16076;DHT22;8142;48.242;11.644;2023-04-29T07:04:56;13.30;99.90
16076;DHT22;8142;48.242;11.644;2023-04-29T07:07:23;13.30;99.90
16076;DHT22;8142;48.242;11.644;2023-04-29T07:09:50;13.40;99.90
16076;DHT22;8142;48.242;11.644;2023-04-29T07:12:17;13.40;99.90
16076;DHT22;8142;48.242;11.644;2023-04-29T07:14:43;13.50;99.90
16076;DHT22;8142;48.242;11.644;2023-04-29T07:17:09;13.60;99.90
16076;DHT22;8142;48.242;11.644;2023-04-29T07:19:34;13.70;99.90
16076;DHT22;8142;48.242;11.644;2023-04-29T07:22:00;13.80;99.90
16076;DHT22;8142;48.242;11.644;2023-04-29T07:24:27;14.00;99.90
16076;DHT22;8142;48.242;11.644;2023-04-29T07:26:53;14.10;99.90
16076;DHT22;8142;48.242;11.644;2023-04-29T07:29:19;14.30;99.90
16076;DHT22;8142;48.242;11.644;2023-04-29T07:31:45;14.50;99.90
16076;DHT22;8142;48.242;11.644;2023-04-29T07:34:11;14.70;99.90
16076;DHT22;8142;48.242;11.644;2023-04-29T07:36:38;14.90;99.90
16076;DHT22;8142;48.242;11.644;2023-04-29T07:39:05;15.10;99.90
16076;DHT22;8142;48.242;11.644;2023-04-29T07:41:31;15.30;99.90
16076;DHT22;8142;48.242;11.644;2023-04-29T07:43:57;15.50;99.90
16076;DHT22;8142;48.242;11.644;2023-04-29T07:46:23;15.60;99.90
16076;DHT22;8142;48.242;11.644;2023-04-29T07:48:49;15.70;99.90
16076;DHT22;8142;48.242;11.644;2023-04-29T07:51:15;15.80;99.90
16076;DHT22;8142;48.242;11.644;2023-04-29T07:53:41;15.80;99.90
16076;DHT22;8142;48.242;11.644;2023-04-29T07:56:07;15.80;99.90
16076;DHT22;8142;48.242;11.644;2023-04-29T07:58:34;15.70;99.90
16076;DHT22;8142;48.242;11.644;2023-04-29T08:01:07;15.70;99.90
16076;DHT22;8142;48.242;11.644;2023-04-29T08:03:33;15.70;99.90
16076;DHT22;8142;48.242;11.644;2023-04-29T08:06:02;15.60;99.90
16076;DHT22;8142;48.242;11.644;2023-04-29T08:08:30;15.60;99.90
16076;DHT22;8142;48.242;11.644;2023-04-29T08:10:56;15.70;99.90
16076;DHT22;8142;48.242;11.644;2023-04-29T08:13:22;15.70;99.90
16076;DHT22;8142;48.242;11.644;2023-04-29T08:15:48;16.00;99.90
16076;DHT22;8142;48.242;11.644;2023-04-29T08:18:15;16.30;99.90
16076;DHT22;8142;48.242;11.644;2023-04-29T08:20:41;16.50;99.90
16076;DHT22;8142;48.242;11.644;2023-04-29T08:23:07;16.70;99.90
16076;DHT22;8142;48.242;11.644;2023-04-29T08:25:33;16.90;99.90
16076;DHT22;8142;48.242;11.644;2023-04-29T08:27:59;17.10;99.90
16076;DHT22;8142;48.242;11.644;2023-04-29T08:30:25;17.20;99.90
16076;DHT22;8142;48.242;11.644;2023-04-29T08:32:51;17.40;99.90
16076;DHT22;8142;48.242;11.644;2023-04-29T08:35:18;17.50;99.90
16076;DHT22;8142;48.242;11.644;2023-04-29T08:37:45;17.50;99.90
16076;DHT22;8142;48.242;11.644;2023-04-29T08:40:12;17.60;99.90
16076;DHT22;8142;48.242;11.644;2023-04-29T08:42:38;17.60;99.90
16076;DHT22;8142;48.242;11.644;2023-04-29T08:45:05;17.60;99.90
16076;DHT22;8142;48.242;11.644;2023-04-29T08:47:33;17.50;99.90
16076;DHT22;8142;48.242;11.644;2023-04-29T08:50:02;17.30;99.90
16076;DHT22;8142;48.242;11.644;2023-04-29T08:52:32;17.20;99.90
16076;DHT22;8142;48.242;11.644;2023-04-29T08:54:58;17.20;99.90
16076;DHT22;8142;48.242;11.644;2023-04-29T08:57:29;17.00;99.90
16076;DHT22;8142;48.242;11.644;2023-04-29T08:59:55;16.90;99.90
16076;DHT22;8142;48.242;11.644;2023-04-29T09:02:21;16.80;99.90
16076;DHT22;8142;48.242;11.644;2023-04-29T09:05:08;16.70;99.90
16076;DHT22;8142;48.242;11.644;2023-04-29T09:07:37;16.60;99.90
16076;DHT22;8142;48.242;11.644;2023-04-29T09:10:04;16.60;99.90
16076;DHT22;8142;48.242;11.644;2023-04-29T09:12:31;16.50;99.90
16076;DHT22;8142;48.242;11.644;2023-04-29T09:14:57;16.40;99.90
16076;DHT22;8142;48.242;11.644;2023-04-29T09:17:42;16.30;99.90
16076;DHT22;8142;48.242;11.644;2023-04-29T09:20:28;16.30;99.90
16076;DHT22;8142;48.242;11.644;2023-04-29T09:22:58;16.20;99.90
16076;DHT22;8142;48.242;11.644;2023-04-29T09:25:24;16.20;99.90
16076;DHT22;8142;48.242;11.644;2023-04-29T09:27:51;16.10;99.90
16076;DHT22;8142;48.242;11.644;2023-04-29T09:30:17;16.10;99.90
16076;DHT22;8142;48.242;11.644;2023-04-29T09:32:44;16.10;99.90
16076;DHT22;8142;48.242;11.644;2023-04-29T09:35:24;16.10;99.90
16076;DHT22;8142;48.242;11.644;2023-04-29T09:37:53;16.20;99.90
16076;DHT22;8142;48.242;11.644;2023-04-29T09:40:33;16.20;99.90
16076;DHT22;8142;48.242;11.644;2023-04-29T09:43:00;16.10;99.90
16076;DHT22;8142;48.242;11.644;2023-04-29T09:45:37;16.10;99.90
16076;DHT22;8142;48.242;11.644;2023-04-29T09:48:04;16.10;99.90
16076;DHT22;8142;48.242;11.644;2023-04-29T09:50:31;16.10;99.90
16076;DHT22;8142;48.242;11.644;2023-04-29T09:52:58;16.10;99.90
16076;DHT22;8142;48.242;11.644;2023-04-29T09:55:25;16.10;99.90
16076;DHT22;8142;48.242;11.644;2023-04-29T09:57:54;16.10;99.90
16076;DHT22;8142;48.242;11.644;2023-04-29T10:00:21;16.00;99.90
16076;DHT22;8142;48.242;11.644;2023-04-29T10:02:50;15.90;99.90
16076;DHT22;8142;48.242;11.644;2023-04-29T10:05:20;15.80;99.90
16076;DHT22;8142;48.242;11.644;2023-04-29T10:07:48;15.70;99.90
16076;DHT22;8142;48.242;11.644;2023-04-29T10:10:16;15.50;99.90
16076;DHT22;8142;48.242;11.644;2023-04-29T10:12:43;15.40;99.90
16076;DHT22;8142;48.242;11.644;2023-04-29T10:15:22;15.30;99.90
16076;DHT22;8142;48.242;11.644;2023-04-29T10:20:52;15.30;99.90
16076;DHT22;8142;48.242;11.644;2023-04-29T10:23:20;15.20;99.90
16076;DHT22;8142;48.242;11.644;2023-04-29T10:25:50;15.20;99.90
16076;DHT22;8142;48.242;11.644;2023-04-29T10:28:18;15.10;99.90
16076;DHT22;8142;48.242;11.644;2023-04-29T10:30:50;14.90;99.90
16076;DHT22;8142;48.242;11.644;2023-04-29T10:33:17;14.80;99.90
16076;DHT22;8142;48.242;11.644;2023-04-29T10:35:45;14.80;99.90
16076;DHT22;8142;48.242;11.644;2023-04-29T10:38:24;14.70;99.90
16076;DHT22;8142;48.242;11.644;2023-04-29T10:40:52;14.70;99.90
16076;DHT22;8142;48.242;11.644;2023-04-29T10:43:22;14.80;99.90
16076;DHT22;8142;48.242;11.644;2023-04-29T10:45:49;14.80;99.90
16076;DHT22;8142;48.242;11.644;2023-04-29T10:48:15;14.80;99.90
16076;DHT22;8142;48.242;11.644;2023-04-29T10:53:19;14.90;99.90
16076;DHT22;8142;48.242;11.644;2023-04-29T10:55:47;15.00;99.90
16076;DHT22;8142;48.242;11.644;2023-04-29T11:01:00;15.10;99.90
16076;DHT22;8142;48.242;11.644;2023-04-29T11:04:00;15.10;99.90
16076;DHT22;8142;48.242;11.644;2023-04-29T11:09:07;15.20;99.90
16076;DHT22;8142;48.242;11.644;2023-04-29T11:14:24;15.30;99.90
16076;DHT22;8142;48.242;11.644;2023-04-29T11:16:52;15.30;99.90
16076;DHT22;8142;48.242;11.644;2023-04-29T11:19:19;15.30;99.90
16076;DHT22;8142;48.242;11.644;2023-04-29T11:21:46;15.30;99.90
16076;DHT22;8142;48.242;11.644;2023-04-29T11:24:13;15.40;99.90
16076;DHT22;8142;48.242;11.644;2023-04-29T11:26:43;15.40;99.90
16076;DHT22;8142;48.242;11.644;2023-04-29T11:29:11;15.40;99.90
16076;DHT22;8142;48.242;11.644;2023-04-29T11:31:37;15.40;99.90
16076;DHT22;8142;48.242;11.644;2023-04-29T11:34:06;15.40;99.90
16076;DHT22;8142;48.242;11.644;2023-04-29T11:36:32;15.50;99.90
16076;DHT22;8142;48.242;11.644;2023-04-29T11:39:02;15.60;99.90
16076;DHT22;8142;48.242;11.644;2023-04-29T11:41:29;15.60;99.90
16076;DHT22;8142;48.242;11.644;2023-04-29T11:43:58;15.60;99.90
16076;DHT22;8142;48.242;11.644;2023-04-29T11:46:24;15.70;99.90
16076;DHT22;8142;48.242;11.644;2023-04-29T11:48:50;15.70;99.90
16076;DHT22;8142;48.242;11.644;2023-04-29T11:51:18;15.70;99.90
16076;DHT22;8142;48.242;11.644;2023-04-29T11:53:45;15.80;99.90
16076;DHT22;8142;48.242;11.644;2023-04-29T11:56:12;15.80;99.90
16076;DHT22;8142;48.242;11.644;2023-04-29T11:58:38;15.90;99.90
16076;DHT22;8142;48.242;11.644;2023-04-29T12:01:04;16.00;99.90
16076;DHT22;8142;48.242;11.644;2023-04-29T12:03:31;16.00;99.90
16076;DHT22;8142;48.242;11.644;2023-04-29T12:05:58;16.00;99.90
16076;DHT22;8142;48.242;11.644;2023-04-29T12:08:27;16.10;99.90
16076;DHT22;8142;48.242;11.644;2023-04-29T12:10:55;16.10;99.90
16076;DHT22;8142;48.242;11.644;2023-04-29T12:13:29;16.20;99.90
16076;DHT22;8142;48.242;11.644;2023-04-29T12:15:56;16.20;99.90
16076;DHT22;8142;48.242;11.644;2023-04-29T12:18:24;16.20;99.90
16076;DHT22;8142;48.242;11.644;2023-04-29T12:20:54;16.20;99.90
16076;DHT22;8142;48.242;11.644;2023-04-29T12:23:24;16.20;99.90
16076;DHT22;8142;48.242;11.644;2023-04-29T12:25:56;16.20;99.90
16076;DHT22;8142;48.242;11.644;2023-04-29T12:28:22;16.10;99.90
16076;DHT22;8142;48.242;11.644;2023-04-29T12:30:50;16.00;99.90
16076;DHT22;8142;48.242;11.644;2023-04-29T12:33:21;16.10;99.90
16076;DHT22;8142;48.242;11.644;2023-04-29T12:35:51;16.10;99.90
16076;DHT22;8142;48.242;11.644;2023-04-29T12:38:29;16.10;99.90
16076;DHT22;8142;48.242;11.644;2023-04-29T12:40:57;16.10;99.90
16076;DHT22;8142;48.242;11.644;2023-04-29T12:46:01;16.20;99.90
16076;DHT22;8142;48.242;11.644;2023-04-29T12:48:30;16.20;99.90
16076;DHT22;8142;48.242;11.644;2023-04-29T12:51:00;16.20;99.90
16076;DHT22;8142;48.242;11.644;2023-04-29T12:53:28;16.20;99.90
16076;DHT22;8142;48.242;11.644;2023-04-29T12:55:54;16.20;99.90
16076;DHT22;8142;48.242;11.644;2023-04-29T12:58:20;16.20;99.90
16076;DHT22;8142;48.242;11.644;2023-04-29T13:00:46;16.10;99.90
16076;DHT22;8142;48.242;11.644;2023-04-29T13:03:12;16.10;99.90
16076;DHT22;8142;48.242;11.644;2023-04-29T13:05:39;16.10;99.90
16076;DHT22;8142;48.242;11.644;2023-04-29T13:08:06;16.10;99.90
16076;DHT22;8142;48.242;11.644;2023-04-29T13:10:33;16.20;99.90
16076;DHT22;8142;48.242;11.644;2023-04-29T13:13:00;16.20;99.90
16076;DHT22;8142;48.242;11.644;2023-04-29T13:15:27;16.20;99.90
16076;DHT22;8142;48.242;11.644;2023-04-29T13:17:54;16.20;99.90
16076;DHT22;8142;48.242;11.644;2023-04-29T13:20:20;16.30;99.90
16076;DHT22;8142;48.242;11.644;2023-04-29T13:22:46;16.30;99.90
16076;DHT22;8142;48.242;11.644;2023-04-29T13:25:13;16.30;99.90
16076;DHT22;8142;48.242;11.644;2023-04-29T13:27:41;16.40;99.90
16076;DHT22;8142;48.242;11.644;2023-04-29T13:30:07;16.40;99.90
16076;DHT22;8142;48.242;11.644;2023-04-29T13:32:34;16.50;99.90
16076;DHT22;8142;48.242;11.644;2023-04-29T13:35:03;16.50;99.90
16076;DHT22;8142;48.242;11.644;2023-04-29T13:37:29;16.50;99.90
16076;DHT22;8142;48.242;11.644;2023-04-29T13:39:56;16.50;99.90
16076;DHT22;8142;48.242;11.644;2023-04-29T13:42:22;16.60;99.90
16076;DHT22;8142;48.242;11.644;2023-04-29T13:44:49;16.50;99.90
16076;DHT22;8142;48.242;11.644;2023-04-29T13:47:16;16.50;99.90
16076;DHT22;8142;48.242;11.644;2023-04-29T13:49:42;16.40;99.90
16076;DHT22;8142;48.242;11.644;2023-04-29T13:52:11;16.40;99.90
16076;DHT22;8142;48.242;11.644;2023-04-29T13:54:38;16.40;99.90
16076;DHT22;8142;48.242;11.644;2023-04-29T13:57:04;16.40;99.90
16076;DHT22;8142;48.242;11.644;2023-04-29T13:59:31;16.30;99.90
16076;DHT22;8142;48.242;11.644;2023-04-29T14:01:58;16.30;99.90
16076;DHT22;8142;48.242;11.644;2023-04-29T14:04:24;16.20;99.90
16076;DHT22;8142;48.242;11.644;2023-04-29T14:06:51;16.20;99.90
16076;DHT22;8142;48.242;11.644;2023-04-29T14:09:17;16.20;99.90
16076;DHT22;8142;48.242;11.644;2023-04-29T14:11:46;16.20;99.90
16076;DHT22;8142;48.242;11.644;2023-04-29T14:14:14;16.20;99.90
16076;DHT22;8142;48.242;11.644;2023-04-29T14:16:40;16.30;99.90
16076;DHT22;8142;48.242;11.644;2023-04-29T14:19:06;16.30;99.90
16076;DHT22;8142;48.242;11.644;2023-04-29T14:21:32;16.40;99.90
16076;DHT22;8142;48.242;11.644;2023-04-29T14:23:59;16.40;99.90
16076;DHT22;8142;48.242;11.644;2023-04-29T14:26:27;16.40;99.90
16076;DHT22;8142;48.242;11.644;2023-04-29T14:28:57;16.40;99.90
16076;DHT22;8142;48.242;11.644;2023-04-29T14:31:28;16.40;99.90
16076;DHT22;8142;48.242;11.644;2023-04-29T14:33:57;16.40;99.90
16076;DHT22;8142;48.242;11.644;2023-04-29T14:36:24;16.40;99.90
16076;DHT22;8142;48.242;11.644;2023-04-29T14:38:49;16.40;99.90
16076;DHT22;8142;48.242;11.644;2023-04-29T14:41:15;16.40;99.90
16076;DHT22;8142;48.242;11.644;2023-04-29T14:43:41;16.30;99.90
16076;DHT22;8142;48.242;11.644;2023-04-29T14:46:08;16.40;99.90
16076;DHT22;8142;48.242;11.644;2023-04-29T14:48:34;16.30;99.90
16076;DHT22;8142;48.242;11.644;2023-04-29T14:51:00;16.20;99.90
16076;DHT22;8142;48.242;11.644;2023-04-29T14:53:25;16.20;99.90
16076;DHT22;8142;48.242;11.644;2023-04-29T14:55:51;16.20;99.90
16076;DHT22;8142;48.242;11.644;2023-04-29T14:58:17;16.20;99.90
16076;DHT22;8142;48.242;11.644;2023-04-29T15:00:43;16.20;99.90
16076;DHT22;8142;48.242;11.644;2023-04-29T15:03:09;16.20;99.90
16076;DHT22;8142;48.242;11.644;2023-04-29T15:05:35;16.20;99.90
16076;DHT22;8142;48.242;11.644;2023-04-29T15:08:01;16.10;99.90
16076;DHT22;8142;48.242;11.644;2023-04-29T15:10:27;16.10;99.90
16076;DHT22;8142;48.242;11.644;2023-04-29T15:12:53;16.00;99.90
16076;DHT22;8142;48.242;11.644;2023-04-29T15:15:20;16.10;99.90
16076;DHT22;8142;48.242;11.644;2023-04-29T15:17:47;16.00;99.90
16076;DHT22;8142;48.242;11.644;2023-04-29T15:20:13;16.00;99.90
16076;DHT22;8142;48.242;11.644;2023-04-29T15:22:39;16.00;99.90
16076;DHT22;8142;48.242;11.644;2023-04-29T15:25:06;16.00;99.90
16076;DHT22;8142;48.242;11.644;2023-04-29T15:27:36;16.00;99.90
16076;DHT22;8142;48.242;11.644;2023-04-29T15:30:03;16.00;99.90
16076;DHT22;8142;48.242;11.644;2023-04-29T15:32:29;15.90;99.90
16076;DHT22;8142;48.242;11.644;2023-04-29T15:34:59;16.00;99.90
16076;DHT22;8142;48.242;11.644;2023-04-29T15:37:25;16.00;99.90
16076;DHT22;8142;48.242;11.644;2023-04-29T15:39:53;16.00;99.90
16076;DHT22;8142;48.242;11.644;2023-04-29T15:42:19;15.90;99.90
16076;DHT22;8142;48.242;11.644;2023-04-29T15:44:45;15.90;99.90
16076;DHT22;8142;48.242;11.644;2023-04-29T15:47:11;15.80;99.90
16076;DHT22;8142;48.242;11.644;2023-04-29T15:49:37;15.80;99.90
16076;DHT22;8142;48.242;11.644;2023-04-29T15:52:03;15.80;99.90